Time,TemperatureF,DewpointF,PressureIn,WindDirection,WindDirectionDegrees,WindSpeedMPH,WindSpeedGustMPH,Humidity,HourlyPrecipIn,Conditions,Clouds,dailyrainin,SolarRadiationWatts/m^2,SoftwareType,DateUTC
2013-03-03 00:02:00,16.0,3.0,-100.00,WNW,284,3.0,4.0,55,0.00,,,0.00,0.000000,,2013-03-03 06:02:00,
2013-03-03 00:11:00,15.0,2.0,-100.00,NW,306,3.0,5.0,55,0.00,,,0.00,0.000000,,2013-03-03 06:11:00,
2013-03-03 00:32:00,15.0,2.0,-100.00,NW,306,3.0,5.0,55,0.00,,,0.00,0.000000,,2013-03-03 06:32:00,
2013-03-03 00:42:00,15.0,2.0,-100.00,NW,306,3.0,5.0,55,0.00,,,0.00,0.000000,,2013-03-03 06:42:00,
2013-03-03 00:52:00,15.0,2.0,-100.00,NW,306,3.0,5.0,55,0.00,,,0.00,0.000000,,2013-03-03 06:52:00,
2013-03-03 01:01:00,15.0,2.0,-100.00,NW,306,3.0,5.0,55,0.00,,,0.00,0.000000,,2013-03-03 07:01:00,
2013-03-03 01:11:00,15.0,3.0,-100.00,WNW,300,3.0,5.0,58,0.00,,,0.00,0.000000,,2013-03-03 07:11:00,
2013-03-03 01:32:00,15.0,3.0,-100.00,WNW,300,3.0,5.0,58,0.00,,,0.00,0.000000,,2013-03-03 07:32:00,
2013-03-03 01:42:00,15.0,3.0,-100.00,WNW,300,3.0,5.0,58,0.00,,,0.00,0.000000,,2013-03-03 07:42:00,
2013-03-03 01:52:00,15.0,3.0,-100.00,WNW,300,3.0,5.0,58,0.00,,,0.00,0.000000,,2013-03-03 07:52:00,
2013-03-03 02:01:00,15.0,3.0,-100.00,WNW,300,3.0,5.0,58,0.00,,,0.00,0.000000,,2013-03-03 08:01:00,
2013-03-03 02:11:00,14.0,2.0,-100.00,NW,319,3.0,5.0,59,0.00,,,0.00,0.000000,,2013-03-03 08:11:00,
2013-03-03 02:32:00,14.0,2.0,-100.00,NW,319,3.0,5.0,59,0.00,,,0.00,0.000000,,2013-03-03 08:32:00,
2013-03-03 02:42:00,14.0,2.0,-100.00,NW,319,3.0,5.0,59,0.00,,,0.00,0.000000,,2013-03-03 08:42:00,
2013-03-03 02:54:00,14.0,2.0,-100.00,NW,319,3.0,5.0,59,0.00,,,0.00,0.000000,,2013-03-03 08:54:00,
2013-03-03 03:01:00,14.0,2.0,-100.00,NW,319,3.0,5.0,59,0.00,,,0.00,0.000000,,2013-03-03 09:01:00,
2013-03-03 03:11:00,14.0,2.0,-100.00,NW,306,2.0,4.0,58,0.00,,,0.00,0.000000,,2013-03-03 09:11:00,
2013-03-03 03:32:00,14.0,2.0,-100.00,NW,306,2.0,4.0,58,0.00,,,0.00,0.000000,,2013-03-03 09:32:00,
2013-03-03 03:42:00,14.0,2.0,-100.00,NW,306,2.0,4.0,58,0.00,,,0.00,0.000000,,2013-03-03 09:42:00,
2013-03-03 03:52:00,14.0,2.0,-100.00,NW,306,2.0,4.0,58,0.00,,,0.00,0.000000,,2013-03-03 09:52:00,
2013-03-03 04:01:00,14.0,2.0,-100.00,NW,306,2.0,4.0,58,0.00,,,0.00,0.000000,,2013-03-03 10:01:00,
2013-03-03 04:11:00,12.0,2.0,-100.00,WNW,285,4.0,5.0,64,0.00,,,0.00,0.000000,,2013-03-03 10:11:00,
2013-03-03 04:32:00,12.0,2.0,-100.00,WNW,285,4.0,5.0,64,0.00,,,0.00,0.000000,,2013-03-03 10:32:00,
2013-03-03 04:42:00,12.0,2.0,-100.00,WNW,285,4.0,5.0,64,0.00,,,0.00,0.000000,,2013-03-03 10:42:00,
2013-03-03 04:52:00,12.0,2.0,-100.00,WNW,285,4.0,5.0,64,0.00,,,0.00,0.000000,,2013-03-03 10:52:00,
2013-03-03 05:01:00,12.0,2.0,-100.00,WNW,285,4.0,5.0,64,0.00,,,0.00,0.000000,,2013-03-03 11:01:00,
2013-03-03 05:11:00,11.0,2.0,-100.00,WNW,287,4.0,6.0,65,0.00,,,0.00,0.000000,,2013-03-03 11:11:00,
2013-03-03 05:32:00,11.0,2.0,-100.00,WNW,287,4.0,6.0,65,0.00,,,0.00,0.000000,,2013-03-03 11:32:00,
2013-03-03 05:42:00,11.0,2.0,-100.00,WNW,287,4.0,6.0,65,0.00,,,0.00,0.000000,,2013-03-03 11:42:00,
2013-03-03 05:52:00,11.0,2.0,-100.00,WNW,287,4.0,6.0,65,0.00,,,0.00,0.000000,,2013-03-03 11:52:00,
2013-03-03 06:01:00,11.0,2.0,-100.00,WNW,287,4.0,6.0,65,0.00,,,0.00,0.000000,,2013-03-03 12:01:00,
2013-03-03 06:11:00,12.0,3.0,-100.00,WNW,298,4.0,6.0,67,0.00,,,0.00,0.000000,,2013-03-03 12:11:00,
2013-03-03 06:32:00,12.0,3.0,-100.00,WNW,298,4.0,6.0,67,0.00,,,0.00,0.000000,,2013-03-03 12:32:00,
2013-03-03 06:43:00,12.0,3.0,-100.00,WNW,298,4.0,6.0,67,0.00,,,0.00,0.000000,,2013-03-03 12:43:00,
2013-03-03 06:53:00,12.0,3.0,-100.00,WNW,298,4.0,6.0,67,0.00,,,0.00,0.000000,,2013-03-03 12:53:00,
2013-03-03 07:01:00,12.0,3.0,-100.00,WNW,298,4.0,6.0,67,0.00,,,0.00,0.000000,,2013-03-03 13:01:00,
2013-03-03 07:11:00,16.0,7.0,-100.00,NNW,342,3.0,5.0,66,0.00,,,0.00,13.000000,,2013-03-03 13:11:00,
2013-03-03 07:42:00,16.0,7.0,-100.00,NNW,342,3.0,5.0,66,0.00,,,0.00,13.000000,,2013-03-03 13:42:00,
2013-03-03 07:52:00,16.0,7.0,-100.00,NNW,342,3.0,5.0,66,0.00,,,0.00,13.000000,,2013-03-03 13:52:00,
2013-03-03 08:02:00,16.0,7.0,-100.00,NNW,342,3.0,5.0,66,0.00,,,0.00,13.000000,,2013-03-03 14:02:00,
2013-03-03 08:11:00,21.0,7.0,-100.00,North,359,3.0,5.0,53,0.00,,,0.00,140.000000,,2013-03-03 14:11:00,
2013-03-03 08:32:00,21.0,7.0,-100.00,North,359,3.0,5.0,53,0.00,,,0.00,140.000000,,2013-03-03 14:32:00,
2013-03-03 08:42:00,21.0,7.0,-100.00,North,359,3.0,5.0,53,0.00,,,0.00,140.000000,,2013-03-03 14:42:00,
2013-03-03 08:52:00,21.0,7.0,-100.00,North,359,3.0,5.0,53,0.00,,,0.00,140.000000,,2013-03-03 14:52:00,
2013-03-03 09:01:00,21.0,7.0,-100.00,North,359,3.0,5.0,53,0.00,,,0.00,140.000000,,2013-03-03 15:01:00,
2013-03-03 09:11:00,26.0,9.0,-100.00,NNW,342,3.0,5.0,47,0.00,,,0.00,327.000000,,2013-03-03 15:11:00,
2013-03-03 09:32:00,26.0,9.0,-100.00,NNW,342,3.0,5.0,47,0.00,,,0.00,327.000000,,2013-03-03 15:32:00,
2013-03-03 09:42:00,26.0,9.0,-100.00,NNW,342,3.0,5.0,47,0.00,,,0.00,327.000000,,2013-03-03 15:42:00,
2013-03-03 09:52:00,26.0,9.0,-100.00,NNW,342,3.0,5.0,47,0.00,,,0.00,327.000000,,2013-03-03 15:52:00,
2013-03-03 10:01:00,26.0,9.0,-100.00,NNW,342,3.0,5.0,47,0.00,,,0.00,327.000000,,2013-03-03 16:01:00,
2013-03-03 10:11:00,31.0,11.0,-100.00,NNW,339,3.0,5.0,43,0.00,,,0.00,492.000000,,2013-03-03 16:11:00,
2013-03-03 10:32:00,31.0,11.0,-100.00,NNW,339,3.0,5.0,43,0.00,,,0.00,492.000000,,2013-03-03 16:32:00,
2013-03-03 10:42:00,31.0,11.0,-100.00,NNW,339,3.0,5.0,43,0.00,,,0.00,492.000000,,2013-03-03 16:42:00,
2013-03-03 10:52:00,31.0,11.0,-100.00,NNW,339,3.0,5.0,43,0.00,,,0.00,492.000000,,2013-03-03 16:52:00,
2013-03-03 11:01:00,31.0,11.0,-100.00,NNW,339,3.0,5.0,43,0.00,,,0.00,492.000000,,2013-03-03 17:01:00,
2013-03-03 11:11:00,32.0,9.0,-100.00,NNW,332,4.0,6.0,37,0.00,,,0.00,627.000000,,2013-03-03 17:11:00,
2013-03-03 11:42:00,32.0,9.0,-100.00,NNW,332,4.0,6.0,37,0.00,,,0.00,627.000000,,2013-03-03 17:42:00,
2013-03-03 11:52:00,32.0,9.0,-100.00,NNW,332,4.0,6.0,37,0.00,,,0.00,627.000000,,2013-03-03 17:52:00,
2013-03-03 12:01:00,32.0,9.0,-100.00,NNW,332,4.0,6.0,37,0.00,,,0.00,627.000000,,2013-03-03 18:01:00,
2013-03-03 12:11:00,33.0,6.0,-100.00,NNW,348,5.0,9.0,32,0.00,,,0.00,703.000000,,2013-03-03 18:11:00,
2013-03-03 12:32:00,33.0,6.0,-100.00,NNW,348,5.0,9.0,32,0.00,,,0.00,703.000000,,2013-03-03 18:32:00,
2013-03-03 12:42:00,33.0,6.0,-100.00,NNW,348,5.0,9.0,32,0.00,,,0.00,703.000000,,2013-03-03 18:42:00,
2013-03-03 12:52:00,33.0,6.0,-100.00,NNW,348,5.0,9.0,32,0.00,,,0.00,703.000000,,2013-03-03 18:52:00,
2013-03-03 13:02:00,33.0,6.0,-100.00,NNW,348,5.0,9.0,32,0.00,,,0.00,703.000000,,2013-03-03 19:02:00,
2013-03-03 13:11:00,35.0,7.0,-100.00,NNW,331,5.0,8.0,30,0.00,,,0.00,714.000000,,2013-03-03 19:11:00,
2013-03-03 13:42:00,35.0,7.0,-100.00,NNW,331,5.0,8.0,30,0.00,,,0.00,714.000000,,2013-03-03 19:42:00,
2013-03-03 13:52:00,35.0,7.0,-100.00,NNW,331,5.0,8.0,30,0.00,,,0.00,714.000000,,2013-03-03 19:52:00,
2013-03-03 14:01:00,35.0,7.0,-100.00,NNW,331,5.0,8.0,30,0.00,,,0.00,714.000000,,2013-03-03 20:01:00,
2013-03-03 14:11:00,36.0,6.0,-100.00,WNW,289,3.0,7.0,28,0.00,,,0.00,456.000000,,2013-03-03 20:11:00,
2013-03-03 14:32:00,36.0,6.0,-100.00,WNW,289,3.0,7.0,28,0.00,,,0.00,456.000000,,2013-03-03 20:32:00,
2013-03-03 14:42:00,36.0,6.0,-100.00,WNW,289,3.0,7.0,28,0.00,,,0.00,456.000000,,2013-03-03 20:42:00,
2013-03-03 14:53:00,36.0,6.0,-100.00,WNW,289,3.0,7.0,28,0.00,,,0.00,456.000000,,2013-03-03 20:53:00,
2013-03-03 15:02:00,36.0,6.0,-100.00,WNW,289,3.0,7.0,28,0.00,,,0.00,456.000000,,2013-03-03 21:02:00,
2013-03-03 15:11:00,36.0,8.0,-100.00,South,185,5.0,9.0,31,0.00,,,0.00,496.000000,,2013-03-03 21:11:00,
2013-03-03 15:32:00,36.0,8.0,-100.00,South,185,5.0,9.0,31,0.00,,,0.00,496.000000,,2013-03-03 21:32:00,
2013-03-03 15:42:00,36.0,8.0,-100.00,South,185,5.0,9.0,31,0.00,,,0.00,496.000000,,2013-03-03 21:42:00,
2013-03-03 15:52:00,36.0,8.0,-100.00,South,185,5.0,9.0,31,0.00,,,0.00,496.000000,,2013-03-03 21:52:00,
2013-03-03 16:01:00,36.0,8.0,-100.00,South,185,5.0,9.0,31,0.00,,,0.00,496.000000,,2013-03-03 22:01:00,
2013-03-03 16:11:00,34.0,9.0,-100.00,South,189,4.0,9.0,34,0.00,,,0.00,394.000000,,2013-03-03 22:11:00,
2013-03-03 16:32:00,34.0,9.0,-100.00,South,189,4.0,9.0,34,0.00,,,0.00,394.000000,,2013-03-03 22:32:00,
2013-03-03 16:42:00,34.0,9.0,-100.00,South,189,4.0,9.0,34,0.00,,,0.00,394.000000,,2013-03-03 22:42:00,
2013-03-03 16:52:00,34.0,9.0,-100.00,South,189,4.0,9.0,34,0.00,,,0.00,394.000000,,2013-03-03 22:52:00,
2013-03-03 17:01:00,34.0,9.0,-100.00,South,189,4.0,9.0,34,0.00,,,0.00,394.000000,,2013-03-03 23:01:00,
2013-03-03 17:11:00,29.0,7.0,-100.00,South,174,4.0,8.0,38,0.00,,,0.00,185.000000,,2013-03-03 23:11:00,
2013-03-03 17:32:00,29.0,7.0,-100.00,South,174,4.0,8.0,38,0.00,,,0.00,185.000000,,2013-03-03 23:32:00,
2013-03-03 17:42:00,29.0,7.0,-100.00,South,174,4.0,8.0,38,0.00,,,0.00,185.000000,,2013-03-03 23:42:00,
2013-03-03 17:52:00,29.0,7.0,-100.00,South,174,4.0,8.0,38,0.00,,,0.00,185.000000,,2013-03-03 23:52:00,
2013-03-03 18:01:00,29.0,7.0,-100.00,South,174,4.0,8.0,38,0.00,,,0.00,185.000000,,2013-03-04 00:01:00,
2013-03-03 18:11:00,24.0,5.0,-100.00,SSE,150,3.0,4.0,43,0.00,,,0.00,22.000000,,2013-03-04 00:11:00,
2013-03-03 18:32:00,24.0,5.0,-100.00,SSE,150,3.0,4.0,43,0.00,,,0.00,22.000000,,2013-03-04 00:32:00,
2013-03-03 18:42:00,24.0,5.0,-100.00,SSE,150,3.0,4.0,43,0.00,,,0.00,22.000000,,2013-03-04 00:42:00,
2013-03-03 18:52:00,24.0,5.0,-100.00,SSE,150,3.0,4.0,43,0.00,,,0.00,22.000000,,2013-03-04 00:52:00,
2013-03-03 19:01:00,24.0,5.0,-100.00,SSE,150,3.0,4.0,43,0.00,,,0.00,22.000000,,2013-03-04 01:01:00,
2013-03-03 19:11:00,22.0,5.0,-100.00,ESE,116,4.0,6.0,48,0.00,,,0.00,0.000000,,2013-03-04 01:11:00,
2013-03-03 19:32:00,22.0,5.0,-100.00,ESE,116,4.0,6.0,48,0.00,,,0.00,0.000000,,2013-03-04 01:32:00,
2013-03-03 19:42:00,22.0,5.0,-100.00,ESE,116,4.0,6.0,48,0.00,,,0.00,0.000000,,2013-03-04 01:42:00,
2013-03-03 19:52:00,22.0,5.0,-100.00,ESE,116,4.0,6.0,48,0.00,,,0.00,0.000000,,2013-03-04 01:52:00,
2013-03-03 20:01:00,22.0,5.0,-100.00,ESE,116,4.0,6.0,48,0.00,,,0.00,0.000000,,2013-03-04 02:01:00,
2013-03-03 20:11:00,20.0,6.0,-100.00,SE,133,5.0,7.0,53,0.00,,,0.00,0.000000,,2013-03-04 02:11:00,
2013-03-03 20:42:00,20.0,6.0,-100.00,SE,133,5.0,7.0,53,0.00,,,0.00,0.000000,,2013-03-04 02:42:00,
2013-03-03 20:52:00,20.0,6.0,-100.00,SE,133,5.0,7.0,53,0.00,,,0.00,0.000000,,2013-03-04 02:52:00,
2013-03-03 21:02:00,20.0,6.0,-100.00,SE,133,5.0,7.0,53,0.00,,,0.00,0.000000,,2013-03-04 03:02:00,
2013-03-03 21:11:00,19.0,7.0,-100.00,ESE,113,5.0,8.0,58,0.00,,,0.00,0.000000,,2013-03-04 03:11:00,
2013-03-03 21:32:00,19.0,7.0,-100.00,ESE,113,5.0,8.0,58,0.00,,,0.00,0.000000,,2013-03-04 03:32:00,
2013-03-03 21:42:00,19.0,7.0,-100.00,ESE,113,5.0,8.0,58,0.00,,,0.00,0.000000,,2013-03-04 03:42:00,
2013-03-03 21:52:00,19.0,7.0,-100.00,ESE,113,5.0,8.0,58,0.00,,,0.00,0.000000,,2013-03-04 03:52:00,
2013-03-03 22:01:00,19.0,7.0,-100.00,ESE,113,5.0,8.0,58,0.00,,,0.00,0.000000,,2013-03-04 04:01:00,
2013-03-03 22:11:00,18.0,6.0,-100.00,ESE,118,5.0,9.0,59,0.00,,,0.00,0.000000,,2013-03-04 04:11:00,
2013-03-03 22:32:00,18.0,6.0,-100.00,ESE,118,5.0,9.0,59,0.00,,,0.00,0.000000,,2013-03-04 04:32:00,
2013-03-03 22:42:00,18.0,6.0,-100.00,ESE,118,5.0,9.0,59,0.00,,,0.00,0.000000,,2013-03-04 04:42:00,
2013-03-03 22:52:00,18.0,6.0,-100.00,ESE,118,5.0,9.0,59,0.00,,,0.00,0.000000,,2013-03-04 04:52:00,
2013-03-03 23:01:00,18.0,6.0,-100.00,ESE,118,5.0,9.0,59,0.00,,,0.00,0.000000,,2013-03-04 05:01:00,
2013-03-03 23:11:00,17.0,6.0,-100.00,ESE,120,5.0,10.0,60,0.00,,,0.00,0.000000,,2013-03-04 05:11:00,
2013-03-03 23:32:00,17.0,6.0,-100.00,ESE,120,5.0,10.0,60,0.00,,,0.00,0.000000,,2013-03-04 05:32:00,
2013-03-03 23:43:00,17.0,6.0,-100.00,ESE,120,5.0,10.0,60,0.00,,,0.00,0.000000,,2013-03-04 05:43:00,
2013-03-03 23:52:00,17.0,6.0,-100.00,ESE,120,5.0,10.0,60,0.00,,,0.00,0.000000,,2013-03-04 05:52:00,